Terminal Aerodrome Forecast
Issued by NWS Melbourne, FL

Home | Current Version | Previous Version | Text Only | Print | Product List | Glossary On
Versions: 1 2 3 4 5 6 7 8 9 10 11 12 13 14 15 16 17 18 19 20 21 22 23 24
915
FTUS42 KMLB 270250 AAA
TAFMCO
TAF AMD
KMCO 270250Z 2703/2724 09004KT P6SM FEW080
     FM270700 VRB02KT 6SM BR FEW030
     FM271400 09006KT P6SM FEW045 SCT250=

USA.gov is the U.S. government's official web portal to all federal, state and local government web resources and services.